Time;durP1;ratioP1;P1;durP2;ratioP2;P2;SDS_P1;SDS_P2;PMS_P1;PMS_P2;Temp;Humidity;BMP_temperature;BMP_pressure;BME280_temperature;BME280_humidity;BME280_pressure;Samples;Min_cycle;Max_cycle;Signal;HPM_P1;HPM_P2
2021/10/18 00:00:53;;;;;;;16.10;8.18;;;;;;;3.95;83.91;98330.08;1791930;80;21443;-75
2021/10/18 00:03:20;;;;;;;13.93;8.23;;;;;;;3.95;84.30;98332.70;1791539;80;20965;-76
2021/10/18 00:05:46;;;;;;;14.10;7.92;;;;;;;3.97;83.77;98326.16;1790140;80;21011;-75
2021/10/18 00:08:13;;;;;;;14.63;8.48;;;;;;;3.98;83.69;98329.67;1790313;80;20996;-75
2021/10/18 00:10:40;;;;;;;12.98;7.72;;;;;;;3.95;83.42;98324.84;1790289;80;20980;-75
2021/10/18 00:13:07;;;;;;;16.02;8.30;;;;;;;3.91;83.20;98325.70;1790237;79;20968;-76
2021/10/18 00:15:33;;;;;;;13.60;7.97;;;;;;;3.88;83.13;98324.81;1792494;79;21000;-76
2021/10/18 00:18:00;;;;;;;13.62;8.68;;;;;;;3.86;83.15;98321.33;1791927;80;20999;-76
2021/10/18 00:20:28;;;;;;;13.38;8.05;;;;;;;3.79;83.63;98314.73;1791783;80;20959;-76
2021/10/18 00:22:54;;;;;;;12.73;7.80;;;;;;;3.79;83.17;98313.88;1787455;79;20975;-76
2021/10/18 00:25:21;;;;;;;17.37;8.08;;;;;;;3.77;83.29;98309.05;1792014;80;21460;-77
2021/10/18 00:27:48;;;;;;;13.38;7.70;;;;;;;3.74;84.78;98307.30;1791794;80;21007;-76
2021/10/18 00:30:15;;;;;;;13.72;7.30;;;;;;;3.70;85.19;98308.19;1791543;80;21054;-77
2021/10/18 00:32:42;;;;;;;11.25;6.85;;;;;;;3.70;84.83;98306.88;1790117;80;21433;-76
2021/10/18 00:35:10;;;;;;;12.00;7.10;;;;;;;3.72;84.79;98303.80;1761293;80;21107;-77
2021/10/18 00:37:38;;;;;;;10.82;6.60;;;;;;;3.75;84.65;98305.56;1790272;80;21318;-76
2021/10/18 00:40:07;;;;;;;12.47;7.25;;;;;;;3.74;84.98;98303.36;1790209;80;21016;-75
2021/10/18 00:42:34;;;;;;;10.20;6.40;;;;;;;3.74;85.53;98307.75;1791849;80;20956;-75
2021/10/18 00:45:01;;;;;;;13.10;6.80;;;;;;;3.77;85.25;98306.42;1819814;79;20946;-75
2021/10/18 00:47:28;;;;;;;9.98;6.05;;;;;;;3.78;85.03;98302.50;1812813;78;21382;-75
2021/10/18 00:49:54;;;;;;;10.48;6.72;;;;;;;3.81;85.13;98303.84;1791955;80;21091;-75
2021/10/18 00:52:21;;;;;;;10.50;6.97;;;;;;;3.87;84.73;98302.98;1791515;80;21396;-75
2021/10/18 00:54:50;;;;;;;11.28;6.40;;;;;;;3.91;84.80;98300.78;1790115;80;20992;-76
2021/10/18 00:57:17;;;;;;;12.15;6.05;;;;;;;3.88;84.42;98296.86;1791633;79;20964;-76
2021/10/18 00:59:46;;;;;;;14.13;6.30;;;;;;;3.88;84.49;98295.55;1791892;80;21401;-76
2021/10/18 01:02:13;;;;;;;12.03;7.08;;;;;;;3.85;84.32;98294.22;1791605;80;21341;-76
2021/10/18 01:04:41;;;;;;;10.23;6.47;;;;;;;3.85;84.26;98297.30;1764086;79;22348;-76
2021/10/18 01:07:07;;;;;;;9.65;6.12;;;;;;;3.74;84.25;98305.98;1824639;79;21396;-76
2021/10/18 01:09:34;;;;;;;13.60;7.05;;;;;;;3.71;84.02;98300.75;1824744;77;20971;-76
2021/10/18 01:12:01;;;;;;;11.68;6.45;;;;;;;3.68;83.67;98301.62;1810805;79;20959;-76
2021/10/18 01:14:27;;;;;;;11.33;6.85;;;;;;;3.66;83.48;98305.11;1791972;80;21041;-74
2021/10/18 01:16:54;;;;;;;8.40;6.03;;;;;;;3.58;83.57;98307.70;1762902;80;21059;-74
2021/10/18 01:19:22;;;;;;;10.55;6.70;;;;;;;3.49;83.60;98306.35;1791719;80;21055;-74
2021/10/18 01:21:57;;;;;;;12.35;6.90;;;;;;;3.39;83.63;98306.73;1787888;79;20990;-74
2021/10/18 01:24:24;;;;;;;10.08;5.87;;;;;;;3.28;84.14;98311.95;1791110;80;21433;-74
2021/10/18 01:26:50;;;;;;;9.85;6.20;;;;;;;3.15;85.05;98307.05;1766647;80;21051;-74
2021/10/18 01:29:17;;;;;;;11.05;6.45;;;;;;;3.06;85.89;98305.27;1792707;80;21015;-75
2021/10/18 01:31:43;;;;;;;10.45;6.20;;;;;;;3.02;85.04;98312.66;1792667;80;21409;-75
2021/10/18 01:34:10;;;;;;;10.70;6.17;;;;;;;2.94;86.57;98311.30;1791121;80;20996;-75
2021/10/18 01:36:37;;;;;;;11.63;5.92;;;;;;;2.93;86.08;98307.36;1792672;79;21019;-75
2021/10/18 01:39:05;;;;;;;14.50;7.20;;;;;;;2.88;86.77;98309.55;1792714;80;21042;-75
2021/10/18 01:41:31;;;;;;;10.43;6.65;;;;;;;2.86;85.83;98309.95;1742581;82;21015;-75
2021/10/18 01:43:58;;;;;;;10.18;6.15;;;;;;;2.84;85.51;98302.95;1742431;81;21039;-75
2021/10/18 01:46:24;;;;;;;10.53;5.60;;;;;;;2.83;85.50;98305.13;1742716;82;21051;-75
2021/10/18 01:48:50;;;;;;;10.13;6.42;;;;;;;2.79;85.47;98305.55;1744966;82;20999;-75
2021/10/18 01:51:17;;;;;;;11.28;6.50;;;;;;;2.80;84.67;98305.98;1744806;82;21504;-75
2021/10/18 01:53:43;;;;;;;13.03;6.65;;;;;;;2.80;85.76;98307.30;1743805;82;21417;-75
2021/10/18 01:56:10;;;;;;;10.80;5.80;;;;;;;2.81;85.23;98304.23;1743358;82;21059;-75
2021/10/18 01:58:36;;;;;;;14.78;6.30;;;;;;;2.80;85.51;98301.17;1743334;82;21456;-75
2021/10/18 02:01:04;;;;;;;9.08;5.67;;;;;;;2.82;85.21;98305.55;1743511;82;21453;-75
2021/10/18 02:03:31;;;;;;;9.40;5.67;;;;;;;2.83;85.08;98303.38;1743432;82;21022;-75
2021/10/18 02:05:57;;;;;;;12.28;5.85;;;;;;;2.83;86.62;98305.98;1766241;81;20972;-76
2021/10/18 02:08:24;;;;;;;11.80;5.97;;;;;;;2.84;86.09;98308.19;1752571;81;21010;-75
2021/10/18 02:10:50;;;;;;;9.48;5.65;;;;;;;2.86;85.51;98306.47;1744906;81;21026;-76
2021/10/18 02:13:17;;;;;;;8.70;5.65;;;;;;;2.87;86.42;98310.84;1744305;82;21501;-75
2021/10/18 02:15:46;;;;;;;9.48;5.50;;;;;;;2.91;86.09;98311.30;1743303;82;21011;-75
2021/10/18 02:18:13;;;;;;;10.18;5.45;;;;;;;2.90;86.23;98307.80;1743340;82;21034;-75
2021/10/18 02:20:39;;;;;;;9.85;5.10;;;;;;;2.92;86.28;98309.55;1743391;82;21004;-76
2021/10/18 02:23:05;;;;;;;10.40;5.75;;;;;;;2.93;85.95;98314.80;1743887;82;20971;-76
2021/10/18 02:25:32;;;;;;;8.05;5.15;;;;;;;2.93;86.02;98313.48;1744928;82;21019;-75
2021/10/18 02:27:59;;;;;;;9.75;5.83;;;;;;;2.88;86.16;98317.82;1757144;81;20995;-76
2021/10/18 02:30:26;;;;;;;7.80;5.28;;;;;;;2.86;85.92;98320.88;1762108;81;21021;-75
2021/10/18 02:32:52;;;;;;;10.53;6.00;;;;;;;2.85;85.91;98319.98;1764003;81;21047;-75
2021/10/18 02:35:18;;;;;;;9.90;5.30;;;;;;;2.86;85.53;98324.34;1766673;79;21393;-75
2021/10/18 02:37:47;;;;;;;10.43;5.60;;;;;;;2.87;85.41;98323.92;1813150;78;20980;-75
2021/10/18 02:40:13;;;;;;;9.15;5.83;;;;;;;2.86;85.65;98324.34;1742115;82;21023;-75
2021/10/18 02:42:41;;;;;;;9.85;5.55;;;;;;;2.85;85.13;98328.26;1743425;80;21616;-75
2021/10/18 02:45:10;;;;;;;10.60;5.90;;;;;;;2.83;85.15;98328.69;1802000;79;21425;-75
2021/10/18 02:47:37;;;;;;;9.88;5.47;;;;;;;2.82;86.02;98330.88;1804580;79;21019;-75
2021/10/18 02:50:05;;;;;;;10.25;5.72;;;;;;;2.80;86.83;98326.05;1804625;79;20980;-75
2021/10/18 02:52:31;;;;;;;15.45;6.00;;;;;;;2.79;86.30;98326.91;1804580;79;21010;-75
2021/10/18 02:54:58;;;;;;;9.20;5.50;;;;;;;2.77;87.14;98330.83;1777592;79;21003;-75
2021/10/18 02:57:24;;;;;;;8.10;5.08;;;;;;;2.77;87.41;98326.90;1795656;80;21026;-75
2021/10/18 02:59:51;;;;;;;9.00;5.75;;;;;;;2.76;87.33;98328.66;1795678;80;20964;-75
2021/10/18 03:02:17;;;;;;;9.18;5.75;;;;;;;2.77;86.25;98326.90;1772955;81;21457;-76
2021/10/18 03:04:48;;;;;;;11.12;5.53;;;;;;;2.76;87.31;98326.45;1795465;80;20973;-76
2021/10/18 03:07:15;;;;;;;11.85;6.00;;;;;;;2.76;87.29;98321.23;1771265;81;21412;-75
2021/10/18 03:09:41;;;;;;;12.13;6.15;;;;;;;2.77;86.95;98311.19;1821661;79;21031;-75
2021/10/18 03:12:08;;;;;;;8.65;5.60;;;;;;;2.79;86.18;98322.98;1822939;79;21075;-75
2021/10/18 03:14:34;;;;;;;11.50;5.83;;;;;;;2.80;86.44;98318.19;1822726;79;20973;-75
2021/10/18 03:17:01;;;;;;;9.15;5.83;;;;;;;2.79;86.50;98312.52;1815331;79;21007;-75
2021/10/18 03:19:27;;;;;;;9.05;5.70;;;;;;;2.80;86.33;98309.03;1773047;81;21077;-75
2021/10/18 03:21:54;;;;;;;8.95;5.30;;;;;;;2.79;87.36;98318.64;1795525;80;21396;-76
2021/10/18 03:24:20;;;;;;;10.30;5.50;;;;;;;2.79;86.90;98315.13;1795592;80;21027;-76
2021/10/18 03:26:47;;;;;;;12.88;6.53;;;;;;;2.79;86.46;98312.09;1760695;81;21060;-76
2021/10/18 03:29:13;;;;;;;10.53;5.95;;;;;;;2.81;86.49;98307.73;1756699;81;21399;-76
2021/10/18 03:31:40;;;;;;;14.85;5.85;;;;;;;2.84;85.98;98318.66;1741174;82;21471;-76
2021/10/18 03:34:09;;;;;;;10.23;6.28;;;;;;;2.83;86.27;98305.98;1714329;82;21025;-76
2021/10/18 03:36:36;;;;;;;8.78;5.40;;;;;;;2.84;85.88;98304.27;1742348;82;21613;-76
2021/10/18 03:39:03;;;;;;;10.30;6.05;;;;;;;2.83;85.86;98312.98;1721204;82;21479;-76
2021/10/18 03:41:29;;;;;;;8.75;5.40;;;;;;;2.81;85.55;98321.24;1758976;80;21432;-76
2021/10/18 03:43:56;;;;;;;9.73;5.53;;;;;;;2.76;85.17;98315.98;1749995;81;21040;-77
2021/10/18 03:46:22;;;;;;;10.45;6.33;;;;;;;2.74;85.65;98312.05;1722346;83;21004;-76
2021/10/18 03:48:49;;;;;;;11.60;6.15;;;;;;;2.72;85.69;98313.79;1722197;83;21442;-77
2021/10/18 03:51:16;;;;;;;8.55;5.62;;;;;;;2.75;85.25;98314.25;1722550;83;21070;-78
2021/10/18 03:53:42;;;;;;;10.45;5.67;;;;;;;2.77;85.67;98320.36;1744623;81;20972;-77
2021/10/18 03:56:09;;;;;;;9.45;5.47;;;;;;;2.76;86.02;98315.98;1759840;81;21015;-77
2021/10/18 03:58:37;;;;;;;11.43;5.87;;;;;;;2.78;85.93;98314.25;1741600;82;21012;-77
2021/10/18 04:01:08;;;;;;;9.00;5.70;;;;;;;2.79;85.68;98317.75;1760484;81;21003;-77
2021/10/18 04:03:32;;;;;;;11.22;5.65;;;;;;;2.79;85.95;98319.06;1746020;82;20999;-76
2021/10/18 04:05:58;;;;;;;11.70;5.80;;;;;;;2.79;85.88;98322.56;1742817;82;21437;-77
2021/10/18 04:08:26;;;;;;;7.95;5.17;;;;;;;2.84;85.89;98316.04;1772570;80;21031;-77
2021/10/18 04:10:53;;;;;;;9.38;5.85;;;;;;;2.90;85.96;98320.00;1773135;81;21001;-77
2021/10/18 04:13:19;;;;;;;11.73;5.67;;;;;;;2.86;85.53;98320.42;1773438;81;21051;-77
2021/10/18 04:15:46;;;;;;;14.90;6.53;;;;;;;2.86;85.70;98312.56;1772692;81;21064;-77
2021/10/18 04:18:12;;;;;;;10.88;5.40;;;;;;;2.86;85.52;98322.18;1772544;81;20966;-77
2021/10/18 04:20:38;;;;;;;10.95;5.75;;;;;;;2.84;85.36;98326.09;1772639;81;21045;-77
2021/10/18 04:23:05;;;;;;;9.15;5.55;;;;;;;2.83;85.41;98319.08;1766510;81;20987;-77
2021/10/18 04:25:31;;;;;;;12.53;6.25;;;;;;;2.82;85.51;98319.95;1760121;81;21429;-77
2021/10/18 04:27:58;;;;;;;9.65;5.60;;;;;;;2.84;85.12;98327.82;1775669;80;20965;-77
2021/10/18 04:30:24;;;;;;;11.75;5.95;;;;;;;2.81;85.07;98332.60;1794006;80;20999;-77
2021/10/18 04:32:51;;;;;;;9.68;5.83;;;;;;;2.80;84.92;98327.34;1804403;79;21039;-77
2021/10/18 04:35:17;;;;;;;11.12;5.92;;;;;;;2.79;84.98;98330.42;1810711;78;21583;-76
2021/10/18 04:37:43;;;;;;;8.38;6.05;;;;;;;2.76;85.11;98329.08;1795648;80;20999;-76
2021/10/18 04:40:10;;;;;;;11.45;6.42;;;;;;;2.75;84.95;98328.64;1788775;79;21035;-77
2021/10/18 04:42:37;;;;;;;13.98;6.03;;;;;;;2.74;85.80;98328.20;1778928;79;21004;-77
2021/10/18 04:45:05;;;;;;;9.40;5.85;;;;;;;2.75;85.35;98329.50;1795369;80;21010;-76
2021/10/18 04:47:33;;;;;;;13.53;6.17;;;;;;;2.77;85.24;98336.95;1794962;80;20976;-76
2021/10/18 04:50:00;;;;;;;11.15;6.65;;;;;;;2.75;85.59;98336.05;1795670;80;20965;-77
2021/10/18 04:52:27;;;;;;;11.83;6.80;;;;;;;2.80;85.27;98341.33;1797631;78;21003;-76
2021/10/18 04:54:53;;;;;;;13.28;6.28;;;;;;;2.81;85.33;98331.30;1795616;80;20956;-77
2021/10/18 04:57:19;;;;;;;11.00;6.47;;;;;;;2.83;85.33;98329.55;1772887;81;21030;-77
2021/10/18 04:59:45;;;;;;;11.10;6.53;;;;;;;2.85;85.47;98336.11;1795045;80;21023;-77
2021/10/18 05:02:12;;;;;;;10.18;5.78;;;;;;;2.87;84.76;98337.88;1793891;80;21073;-77
2021/10/18 05:04:38;;;;;;;10.05;6.30;;;;;;;2.88;85.18;98334.84;1803910;79;20980;-76
2021/10/18 05:07:05;;;;;;;12.33;6.62;;;;;;;2.92;84.66;98340.96;1822669;79;21026;-76
2021/10/18 05:09:31;;;;;;;13.18;7.35;;;;;;;2.92;84.64;98337.03;1801175;79;21406;-76
2021/10/18 05:11:58;;;;;;;12.35;6.97;;;;;;;2.93;84.59;98343.59;1773365;81;20974;-76
2021/10/18 05:14:24;;;;;;;12.58;7.15;;;;;;;2.93;84.49;98342.28;1773333;79;21026;-76
2021/10/18 05:16:52;;;;;;;13.10;7.30;;;;;;;2.89;85.10;98347.05;1768494;80;21443;-76
2021/10/18 05:19:19;;;;;;;15.53;7.33;;;;;;;2.87;85.06;98347.03;1759135;81;21017;-75
2021/10/18 05:21:45;;;;;;;16.27;7.53;;;;;;;2.85;85.22;98354.44;1762555;79;21527;-76
2021/10/18 05:24:12;;;;;;;14.65;7.50;;;;;;;2.86;85.05;98356.21;1795715;80;20999;-76
2021/10/18 05:26:38;;;;;;;16.93;7.12;;;;;;;2.86;84.95;98351.83;1795583;80;21031;-75
2021/10/18 05:29:04;;;;;;;13.72;7.20;;;;;;;2.89;84.73;98354.48;1743124;79;20985;-76
2021/10/18 05:31:31;;;;;;;12.75;7.28;;;;;;;2.93;84.95;98363.65;1754693;81;21009;-76
2021/10/18 05:33:58;;;;;;;18.23;7.70;;;;;;;2.94;84.99;98366.28;1741677;81;21092;-77
2021/10/18 05:36:25;;;;;;;18.42;7.80;;;;;;;2.98;84.91;98368.48;1765623;81;21011;-76
2021/10/18 05:38:52;;;;;;;15.55;7.35;;;;;;;3.07;84.82;98374.24;1728800;82;21013;-77
2021/10/18 05:41:19;;;;;;;13.53;7.80;;;;;;;3.10;84.88;98362.45;1742260;81;21067;-77
2021/10/18 05:43:48;;;;;;;13.08;7.33;;;;;;;3.15;84.69;98373.42;1734551;81;21035;-76
2021/10/18 05:46:16;;;;;;;17.25;8.23;;;;;;;3.20;84.64;98373.43;1740430;82;21044;-76
2021/10/18 05:48:43;;;;;;;11.33;6.83;;;;;;;3.21;84.47;98367.35;1760056;81;20960;-76
2021/10/18 05:51:10;;;;;;;12.25;7.75;;;;;;;3.24;84.45;98375.66;1748054;82;21016;-76
2021/10/18 05:53:36;;;;;;;14.90;7.10;;;;;;;3.23;84.03;98373.46;1773047;81;20969;-76
2021/10/18 05:56:03;;;;;;;13.88;7.65;;;;;;;3.21;83.96;98379.14;1785759;80;21127;-76
2021/10/18 05:58:30;;;;;;;17.05;8.35;;;;;;;3.21;83.64;98384.38;1773081;81;20997;-76
2021/10/18 06:00:57;;;;;;;17.98;8.58;;;;;;;3.21;84.01;98390.03;1761209;81;21058;-76
2021/10/18 06:03:23;;;;;;;15.18;7.92;;;;;;;3.23;83.62;98394.84;1759973;81;20960;-75
2021/10/18 06:05:52;;;;;;;20.08;8.43;;;;;;;3.22;83.57;98395.29;1736629;82;21035;-76
2021/10/18 06:08:18;;;;;;;16.17;8.35;;;;;;;3.26;83.60;98398.38;1773231;80;21051;-76
2021/10/18 06:10:45;;;;;;;15.58;7.90;;;;;;;3.30;83.59;98405.81;1752869;82;21412;-76
2021/10/18 06:13:12;;;;;;;18.85;8.65;;;;;;;3.32;83.96;98405.83;1754666;81;21035;-76
2021/10/18 06:15:39;;;;;;;16.87;8.45;;;;;;;3.33;83.78;98402.34;1744503;81;21037;-76
2021/10/18 06:18:14;;;;;;;16.93;8.35;;;;;;;3.35;83.86;98403.20;1740513;82;21037;-76
2021/10/18 06:20:45;;;;;;;17.40;8.98;;;;;;;3.39;83.31;98400.64;1758740;81;21052;-76
2021/10/18 06:23:13;;;;;;;16.52;8.93;;;;;;;3.42;83.29;98407.22;1757438;81;21078;-76
2021/10/18 06:25:40;;;;;;;19.98;9.50;;;;;;;3.46;83.49;98406.80;1740577;82;21010;-75
2021/10/18 06:28:11;;;;;;;15.98;8.73;;;;;;;3.51;83.51;98409.42;1773384;79;21071;-76
2021/10/18 06:30:37;;;;;;;16.80;9.35;;;;;;;3.59;83.53;98408.16;1823442;79;21495;-76
2021/10/18 06:33:04;;;;;;;17.67;8.93;;;;;;;3.64;83.10;98413.88;1795614;80;20996;-76
2021/10/18 06:35:33;;;;;;;16.55;8.93;;;;;;;3.70;83.10;98414.34;1772161;80;20982;-76
2021/10/18 06:38:00;;;;;;;19.55;8.10;;;;;;;3.80;83.02;98419.19;1791531;80;21390;-76
2021/10/18 06:40:27;;;;;;;12.88;7.95;;;;;;;3.87;82.81;98418.78;1764406;81;21004;-76
2021/10/18 06:42:54;;;;;;;17.20;9.43;;;;;;;3.94;82.63;98422.75;1796197;79;20958;-76
2021/10/18 06:45:21;;;;;;;14.95;7.83;;;;;;;4.03;82.54;98427.14;1767021;80;21034;-76
2021/10/18 06:47:47;;;;;;;14.47;8.35;;;;;;;4.12;82.29;98426.32;1787517;80;21700;-76
2021/10/18 06:50:14;;;;;;;18.48;8.65;;;;;;;4.21;82.11;98423.73;1775396;80;20968;-76
2021/10/18 06:52:42;;;;;;;11.83;8.15;;;;;;;4.32;81.87;98432.92;1764367;80;21003;-76
2021/10/18 06:55:12;;;;;;;14.25;8.28;;;;;;;4.42;81.79;98435.57;1795224;79;21013;-75
2021/10/18 06:57:38;;;;;;;17.73;8.65;;;;;;;4.52;81.81;98439.97;1757526;81;21069;-76
2021/10/18 07:00:07;;;;;;;13.05;8.55;;;;;;;4.62;81.62;98435.17;1762639;81;20996;-76
2021/10/18 07:02:34;;;;;;;14.47;8.75;;;;;;;4.74;81.68;98434.31;1780787;80;21007;-76
2021/10/18 07:05:01;;;;;;;15.40;8.48;;;;;;;4.88;81.46;98443.95;1766764;80;21027;-76
2021/10/18 07:07:27;;;;;;;15.60;8.13;;;;;;;5.01;81.60;98440.89;1777391;80;21393;-76
2021/10/18 07:10:00;;;;;;;16.15;8.40;;;;;;;5.15;81.41;98433.88;1795572;80;20976;-76
2021/10/18 07:12:24;;;;;;;20.60;9.45;;;;;;;5.29;81.26;98435.63;1795212;80;21012;-76
2021/10/18 07:14:50;;;;;;;16.85;9.18;;;;;;;5.41;80.84;98429.03;1781478;80;21099;-76
2021/10/18 07:17:17;;;;;;;15.95;8.68;;;;;;;5.53;80.46;98432.53;1772980;80;21065;-76
2021/10/18 07:19:44;;;;;;;15.78;8.90;;;;;;;5.61;79.75;98429.42;1786361;80;20963;-75
2021/10/18 07:22:10;;;;;;;15.23;8.15;;;;;;;5.72;79.85;98433.81;1790162;80;20987;-75
2021/10/18 07:24:37;;;;;;;23.00;9.28;;;;;;;5.79;78.57;98436.84;1762088;81;21437;-76
2021/10/18 07:27:04;;;;;;;14.10;8.38;;;;;;;5.88;79.22;98442.50;1763265;81;20999;-71
2021/10/18 07:29:30;;;;;;;20.25;7.78;;;;;;;5.98;79.30;98445.99;1791716;80;21007;-72
2021/10/18 07:31:57;;;;;;;14.85;8.70;;;;;;;6.14;78.93;98448.16;1763485;80;21131;-78
2021/10/18 07:34:25;;;;;;;13.88;8.58;;;;;;;6.32;78.87;98451.14;1786711;79;20965;-73
2021/10/18 07:36:52;;;;;;;17.48;9.00;;;;;;;6.51;77.63;98446.64;1765052;80;21030;-76
2021/10/18 07:39:22;;;;;;;13.48;8.18;;;;;;;6.67;76.58;98450.06;1760908;80;21040;-75
2021/10/18 07:41:52;;;;;;;16.25;8.90;;;;;;;6.80;77.45;98452.59;1753748;80;21033;-76
2021/10/18 07:44:19;;;;;;;12.88;8.00;;;;;;;6.82;74.15;98449.06;1758969;80;21029;-76
2021/10/18 07:46:46;;;;;;;13.45;8.25;;;;;;;6.89;74.41;98453.85;1758670;80;21037;-77
2021/10/18 07:49:13;;;;;;;13.18;8.03;;;;;;;6.94;73.32;98457.33;1759411;80;21413;-76
2021/10/18 07:51:40;;;;;;;15.43;7.72;;;;;;;7.04;75.43;98449.36;1764009;80;20962;-76
2021/10/18 07:54:06;;;;;;;14.93;8.53;;;;;;;7.16;75.79;98451.91;1760947;80;21474;-77
2021/10/18 07:56:33;;;;;;;16.80;8.23;;;;;;;7.26;74.89;98446.98;1758715;81;21026;-78
2021/10/18 07:58:59;;;;;;;17.52;8.48;;;;;;;7.35;72.91;98449.97;1754867;81;21008;-77
2021/10/18 08:01:26;;;;;;;39.85;22.02;;;;;;;7.44;74.07;98449.46;1775281;79;20976;-78
2021/10/18 08:03:52;;;;;;;32.75;16.75;;;;;;;7.55;74.72;98444.09;1753018;80;20985;-78
2021/10/18 08:06:19;;;;;;;14.33;9.28;;;;;;;7.64;74.30;98439.58;1784772;79;20940;-78
2021/10/18 08:08:51;;;;;;;11.80;7.70;;;;;;;7.75;73.43;98438.59;1796872;79;21568;-78
2021/10/18 08:11:17;;;;;;;10.15;7.20;;;;;;;7.87;72.57;98436.26;1792986;79;21439;-78
2021/10/18 08:13:44;;;;;;;12.73;7.62;;;;;;;7.96;71.75;98443.19;1792146;79;20975;-78
2021/10/18 08:16:11;;;;;;;10.63;6.92;;;;;;;8.00;70.89;98441.83;1807237;79;21044;-77
2021/10/18 08:18:38;;;;;;;10.60;7.10;;;;;;;8.05;71.29;98430.77;1797333;79;20983;-78
2021/10/18 08:21:07;;;;;;;16.65;7.10;;;;;;;8.09;71.60;98438.66;1790522;79;21013;-81
2021/10/18 08:23:37;;;;;;;10.08;6.50;;;;;;;8.17;71.28;98435.45;1786651;79;21022;-81
2021/10/18 08:26:05;;;;;;;11.85;5.90;;;;;;;8.24;71.63;98439.78;1762332;80;20979;-77
2021/10/18 08:28:33;;;;;;;11.33;7.30;;;;;;;8.39;71.29;98432.08;1775981;80;21410;-80
2021/10/18 08:30:59;;;;;;;9.83;6.55;;;;;;;8.57;69.48;98431.45;1790222;80;20972;-77
2021/10/18 08:33:26;;;;;;;15.83;7.17;;;;;;;8.73;69.46;98424.17;1805789;79;20999;-77
2021/10/18 08:35:53;;;;;;;12.47;7.15;;;;;;;8.89;69.33;98430.54;1790708;80;20983;-77
2021/10/18 08:41:17;;;;;;;10.00;5.95;;;;;;;9.08;69.17;98430.67;1792028;80;20917;-78
2021/10/18 08:46:27;;;;;;;;;;;;;;;9.30;66.40;98435.58;1789211;79;21392;-78
2021/10/18 08:48:57;;;;;;;8.20;5.50;;;;;;;9.46;68.01;98432.66;1761738;80;20161;-82
2021/10/18 08:51:25;;;;;;;9.50;5.75;;;;;;;9.61;66.87;98427.55;1760513;80;21393;-78
2021/10/18 08:53:53;;;;;;;9.93;5.58;;;;;;;9.82;66.84;98428.92;1768091;79;21409;-85
2021/10/18 08:56:20;;;;;;;11.50;6.20;;;;;;;10.06;64.01;98431.98;1754550;80;21490;-78
2021/10/18 08:58:47;;;;;;;10.43;5.85;;;;;;;10.34;62.43;98429.20;1753034;80;21402;-80
2021/10/18 09:01:15;;;;;;;11.10;6.20;;;;;;;10.63;64.21;98418.44;1790416;80;20968;-80
2021/10/18 09:03:41;;;;;;;10.95;6.00;;;;;;;10.89;62.79;98421.81;1777394;80;21078;-79
2021/10/18 09:06:22;;;;;;;9.95;5.92;;;;;;;11.10;62.54;98419.53;1790796;79;21021;-80
2021/10/18 09:08:52;;;;;;;10.05;6.40;;;;;;;11.26;62.99;98424.01;1788439;80;21004;-83
2021/10/18 09:11:27;;;;;;;8.33;5.80;;;;;;;11.40;63.81;98426.73;1769881;80;21051;-77
2021/10/18 09:13:58;;;;;;;10.90;5.97;;;;;;;11.53;61.34;98423.30;1815933;79;21016;-79
2021/10/18 09:16:44;;;;;;;10.88;6.50;;;;;;;11.65;62.98;98423.43;1820031;79;21002;-81
2021/10/18 09:19:26;;;;;;;11.08;6.12;;;;;;;11.72;62.40;98427.20;1805612;79;21076;-79
2021/10/18 09:22:08;;;;;;;8.95;6.20;;;;;;;11.74;59.49;98430.70;1792649;79;20954;-77
2021/10/18 09:24:41;;;;;;;8.80;5.83;;;;;;;11.75;57.88;98430.23;1787775;79;20983;-77
2021/10/18 09:27:19;;;;;;;9.48;6.30;;;;;;;11.70;56.68;98430.37;1793342;79;20960;-77
2021/10/18 09:29:51;;;;;;;10.35;5.95;;;;;;;11.72;58.14;98430.33;1801240;79;20969;-76
2021/10/18 09:32:29;;;;;;;9.15;5.60;;;;;;;11.79;57.52;98432.37;1794292;78;21035;-76
2021/10/18 09:35:10;;;;;;;9.38;5.60;;;;;;;11.85;57.62;98432.19;1793754;80;21008;-76
2021/10/18 09:37:41;;;;;;;11.85;6.15;;;;;;;11.89;55.00;98432.53;1797353;79;20970;-76
2021/10/18 09:40:09;;;;;;;9.93;4.80;;;;;;;11.92;56.19;98437.73;1794766;78;20983;-75
2021/10/18 09:42:38;;;;;;;10.82;5.08;;;;;;;11.93;54.90;98434.19;1787954;80;21028;-78
2021/10/18 09:48:05;;;;;;;9.10;5.20;;;;;;;11.99;53.13;98426.48;1767728;80;20975;-76
2021/10/18 10:51:01;;;;;;;9.65;6.37;;;;;;;13.68;47.85;98373.75;1791196;79;20129;-78
2021/10/18 10:56:25;;;;;;;8.55;4.90;;;;;;;13.40;46.55;98368.48;1781162;79;21033;-77
2021/10/18 10:59:30;;;;;;;7.17;4.55;;;;;;;13.28;45.95;98364.00;1770511;79;21026;-76
2021/10/18 11:01:47;;;;;;;11.12;4.75;;;;;;;13.34;45.83;98363.78;1762851;81;21000;-76
2021/10/18 11:04:33;;;;;;;7.58;4.67;;;;;;;13.34;45.73;98361.12;1771546;81;21389;-77
2021/10/18 11:07:13;;;;;;;8.85;4.30;;;;;;;13.40;45.43;98360.05;1767667;81;20983;-76
2021/10/18 11:09:56;;;;;;;6.17;4.58;;;;;;;13.52;48.19;98367.22;1789552;78;20953;-75
2021/10/18 11:12:32;;;;;;;7.47;4.65;;;;;;;13.61;49.22;98354.91;1797953;79;20968;-77
2021/10/18 11:15:11;;;;;;;10.70;5.10;;;;;;;13.70;48.64;98354.57;1803004;79;20996;-76
2021/10/18 11:17:51;;;;;;;5.45;4.25;;;;;;;13.69;48.05;98351.51;1786998;78;21446;-74
2021/10/18 11:20:24;;;;;;;7.53;5.05;;;;;;;13.70;49.84;98358.56;1780524;80;20961;-73
2021/10/18 11:22:54;;;;;;;8.33;4.50;;;;;;;13.66;49.38;98350.76;1810671;78;21432;-77
2021/10/18 11:25:32;;;;;;;8.95;5.12;;;;;;;13.62;49.15;98357.11;1792381;80;21453;-74
2021/10/18 11:28:04;;;;;;;7.65;5.20;;;;;;;13.62;48.98;98350.45;1787274;80;21026;-74
2021/10/18 11:30:35;;;;;;;9.23;5.47;;;;;;;13.62;49.61;98348.64;1790675;80;21043;-74
2021/10/18 11:33:10;;;;;;;6.20;4.78;;;;;;;13.67;48.84;98345.83;1790412;79;21412;-80
2021/10/18 11:35:39;;;;;;;9.10;4.75;;;;;;;13.71;50.05;98344.31;1763729;80;20990;-80
2021/10/18 11:38:17;;;;;;;8.73;4.90;;;;;;;13.75;49.48;98344.22;1791826;80;20968;-80
2021/10/18 11:40:50;;;;;;;8.63;4.90;;;;;;;13.77;49.45;98342.35;1764166;81;21345;-79
2021/10/18 11:43:30;;;;;;;11.15;5.20;;;;;;;13.77;49.73;98338.36;1761727;80;20991;-79
2021/10/18 11:46:00;;;;;;;10.13;4.97;;;;;;;13.78;49.81;98340.97;1790825;80;20975;-79
2021/10/18 11:48:31;;;;;;;8.33;4.70;;;;;;;13.81;49.48;98332.87;1764140;81;21010;-79
2021/10/18 11:51:01;;;;;;;7.58;5.37;;;;;;;13.88;49.64;98336.62;1791904;80;21080;-79
2021/10/18 11:53:33;;;;;;;7.55;4.80;;;;;;;13.86;49.58;98333.56;1714347;80;21020;-79
2021/10/18 11:56:04;;;;;;;6.92;4.80;;;;;;;13.82;49.63;98330.61;1789931;79;21041;-78
2021/10/18 11:58:37;;;;;;;6.50;4.05;;;;;;;13.79;48.41;98331.19;1762645;81;21024;-79
2021/10/18 12:01:08;;;;;;;6.72;4.00;;;;;;;13.72;46.46;98330.55;1790028;80;21036;-78
2021/10/18 12:03:40;;;;;;;12.85;8.33;;;;;;;13.61;45.13;98329.60;1791417;79;21043;-79
2021/10/18 12:06:10;;;;;;;6.28;4.03;;;;;;;13.55;45.64;98333.38;1762902;81;21027;-79
2021/10/18 12:08:40;;;;;;;6.58;4.15;;;;;;;13.53;47.61;98332.55;1762387;81;20976;-78
2021/10/18 12:11:11;;;;;;;5.80;4.37;;;;;;;13.44;45.81;98323.53;1787480;80;21006;-78
2021/10/18 12:13:43;;;;;;;8.18;4.55;;;;;;;13.32;47.22;98315.06;1790215;80;20994;-78
2021/10/18 12:16:22;;;;;;;7.37;4.70;;;;;;;13.34;48.50;98326.52;1797904;79;21085;-78
2021/10/18 12:19:00;;;;;;;6.45;4.15;;;;;;;13.38;48.85;98321.09;1772868;81;21018;-78
2021/10/18 12:21:36;;;;;;;9.28;4.03;;;;;;;13.42;49.02;98320.91;1772781;81;21088;-79
2021/10/18 12:24:16;;;;;;;8.45;5.00;;;;;;;13.45;49.47;98318.60;1738995;82;21475;-79
2021/10/18 12:26:54;;;;;;;8.93;5.25;;;;;;;13.49;49.14;98324.27;1770921;80;20961;-79
2021/10/18 12:29:24;;;;;;;8.03;5.42;;;;;;;13.53;50.09;98322.38;1764795;80;21102;-81
2021/10/18 12:31:57;;;;;;;12.05;4.75;;;;;;;13.51;50.30;98326.42;1762236;81;21051;-80
2021/10/18 12:34:29;;;;;;;7.08;4.53;;;;;;;13.45;49.87;98326.59;1734619;81;21024;-80
2021/10/18 12:37:07;;;;;;;6.53;5.00;;;;;;;13.41;50.22;98327.17;1761861;80;21040;-80
2021/10/18 12:39:50;;;;;;;8.00;4.95;;;;;;;13.36;50.36;98318.96;1760861;81;21059;-80
2021/10/18 12:42:29;;;;;;;6.75;4.67;;;;;;;13.30;50.72;98319.59;1732660;81;21016;-80
2021/10/18 12:45:16;;;;;;;8.28;5.55;;;;;;;13.30;50.38;98321.37;1760941;80;21035;-79
2021/10/18 12:47:59;;;;;;;9.15;4.53;;;;;;;13.27;50.57;98327.67;1732276;83;20995;-79
2021/10/18 12:50:29;;;;;;;7.05;4.80;;;;;;;13.18;50.38;98321.34;1731959;83;21041;-80
2021/10/18 12:53:02;;;;;;;7.37;4.65;;;;;;;13.15;50.30;98330.30;1732092;83;21018;-79